sensor_id;sensor_type;location;lat;lon;timestamp;P1;durP1;ratioP1;P2;durP2;ratioP2
5696;SDS011;2873;50.966;7.210;2023-04-12T00:01:45;7.95;;;1.75;;
5696;SDS011;2873;50.966;7.210;2023-04-12T00:04:10;8.33;;;2.10;;
5696;SDS011;2873;50.966;7.210;2023-04-12T00:06:38;5.20;;;1.80;;
5696;SDS011;2873;50.966;7.210;2023-04-12T00:09:04;3.80;;;1.50;;
5696;SDS011;2873;50.966;7.210;2023-04-12T00:11:30;7.20;;;2.13;;
5696;SDS011;2873;50.966;7.210;2023-04-12T00:13:55;5.07;;;2.03;;
5696;SDS011;2873;50.966;7.210;2023-04-12T00:16:21;4.70;;;1.90;;
5696;SDS011;2873;50.966;7.210;2023-04-12T00:18:47;9.73;;;2.50;;
5696;SDS011;2873;50.966;7.210;2023-04-12T00:21:12;7.00;;;2.00;;
5696;SDS011;2873;50.966;7.210;2023-04-12T00:23:41;4.82;;;2.05;;
5696;SDS011;2873;50.966;7.210;2023-04-12T00:26:08;9.25;;;2.20;;
5696;SDS011;2873;50.966;7.210;2023-04-12T00:28:34;8.18;;;2.10;;
5696;SDS011;2873;50.966;7.210;2023-04-12T00:30:59;6.80;;;2.00;;
5696;SDS011;2873;50.966;7.210;2023-04-12T00:33:25;10.18;;;2.10;;
5696;SDS011;2873;50.966;7.210;2023-04-12T00:35:51;8.63;;;2.00;;
5696;SDS011;2873;50.966;7.210;2023-04-12T00:38:16;5.60;;;1.80;;
5696;SDS011;2873;50.966;7.210;2023-04-12T00:40:42;4.55;;;2.05;;
5696;SDS011;2873;50.966;7.210;2023-04-12T00:43:08;4.38;;;1.73;;
5696;SDS011;2873;50.966;7.210;2023-04-12T00:45:42;3.63;;;2.00;;
5696;SDS011;2873;50.966;7.210;2023-04-12T00:48:11;6.20;;;2.10;;
5696;SDS011;2873;50.966;7.210;2023-04-12T00:50:38;10.60;;;2.35;;
5696;SDS011;2873;50.966;7.210;2023-04-12T00:53:05;8.40;;;2.00;;
5696;SDS011;2873;50.966;7.210;2023-04-12T00:55:33;8.48;;;2.22;;
5696;SDS011;2873;50.966;7.210;2023-04-12T00:58:00;7.13;;;2.42;;
5696;SDS011;2873;50.966;7.210;2023-04-12T01:00:25;12.77;;;2.63;;
5696;SDS011;2873;50.966;7.210;2023-04-12T01:02:51;6.20;;;1.85;;
5696;SDS011;2873;50.966;7.210;2023-04-12T01:05:18;7.20;;;2.00;;
5696;SDS011;2873;50.966;7.210;2023-04-12T01:10:23;6.28;;;2.22;;
5696;SDS011;2873;50.966;7.210;2023-04-12T01:13:12;6.47;;;2.20;;
5696;SDS011;2873;50.966;7.210;2023-04-12T01:18:50;8.20;;;2.23;;
5696;SDS011;2873;50.966;7.210;2023-04-12T01:21:41;6.50;;;2.00;;
5696;SDS011;2873;50.966;7.210;2023-04-12T01:27:09;6.55;;;1.95;;
5696;SDS011;2873;50.966;7.210;2023-04-12T01:29:57;8.82;;;2.60;;
5696;SDS011;2873;50.966;7.210;2023-04-12T01:32:27;8.05;;;2.33;;
5696;SDS011;2873;50.966;7.210;2023-04-12T01:34:54;5.57;;;1.70;;
5696;SDS011;2873;50.966;7.210;2023-04-12T01:37:21;5.10;;;1.90;;
5696;SDS011;2873;50.966;7.210;2023-04-12T01:39:47;3.67;;;1.80;;
5696;SDS011;2873;50.966;7.210;2023-04-12T01:42:23;6.25;;;2.15;;
5696;SDS011;2873;50.966;7.210;2023-04-12T01:44:48;7.25;;;2.03;;
5696;SDS011;2873;50.966;7.210;2023-04-12T01:47:14;6.65;;;2.25;;
5696;SDS011;2873;50.966;7.210;2023-04-12T01:50:42;10.75;;;2.10;;
5696;SDS011;2873;50.966;7.210;2023-04-12T01:52:35;7.37;;;2.00;;
5696;SDS011;2873;50.966;7.210;2023-04-12T01:55:07;6.95;;;1.90;;
5696;SDS011;2873;50.966;7.210;2023-04-12T01:57:36;7.30;;;2.10;;
5696;SDS011;2873;50.966;7.210;2023-04-12T02:00:03;6.00;;;2.10;;
5696;SDS011;2873;50.966;7.210;2023-04-12T02:02:31;10.30;;;2.33;;
5696;SDS011;2873;50.966;7.210;2023-04-12T02:04:59;4.00;;;1.95;;
5696;SDS011;2873;50.966;7.210;2023-04-12T02:07:26;9.18;;;2.20;;
5696;SDS011;2873;50.966;7.210;2023-04-12T02:09:52;5.78;;;2.20;;
5696;SDS011;2873;50.966;7.210;2023-04-12T02:12:18;4.10;;;2.07;;
5696;SDS011;2873;50.966;7.210;2023-04-12T02:14:43;5.95;;;2.00;;
5696;SDS011;2873;50.966;7.210;2023-04-12T02:17:09;3.03;;;1.37;;
5696;SDS011;2873;50.966;7.210;2023-04-12T02:19:37;1.92;;;1.50;;
5696;SDS011;2873;50.966;7.210;2023-04-12T02:22:02;6.27;;;1.90;;
5696;SDS011;2873;50.966;7.210;2023-04-12T02:24:29;1.77;;;1.60;;
5696;SDS011;2873;50.966;7.210;2023-04-12T02:26:56;6.05;;;1.58;;
5696;SDS011;2873;50.966;7.210;2023-04-12T02:29:23;2.30;;;1.50;;
5696;SDS011;2873;50.966;7.210;2023-04-12T02:31:48;4.13;;;1.70;;
5696;SDS011;2873;50.966;7.210;2023-04-12T02:34:14;5.30;;;1.75;;
5696;SDS011;2873;50.966;7.210;2023-04-12T02:36:44;5.33;;;1.80;;
5696;SDS011;2873;50.966;7.210;2023-04-12T02:39:11;8.50;;;1.92;;
5696;SDS011;2873;50.966;7.210;2023-04-12T02:41:36;8.90;;;2.20;;
5696;SDS011;2873;50.966;7.210;2023-04-12T02:44:02;7.22;;;1.73;;
5696;SDS011;2873;50.966;7.210;2023-04-12T02:46:27;4.30;;;1.50;;
5696;SDS011;2873;50.966;7.210;2023-04-12T02:48:53;4.50;;;1.80;;
5696;SDS011;2873;50.966;7.210;2023-04-12T02:51:18;7.87;;;2.30;;
5696;SDS011;2873;50.966;7.210;2023-04-12T02:53:44;9.03;;;1.87;;
5696;SDS011;2873;50.966;7.210;2023-04-12T02:56:09;5.97;;;1.90;;
5696;SDS011;2873;50.966;7.210;2023-04-12T02:58:35;4.78;;;1.92;;
5696;SDS011;2873;50.966;7.210;2023-04-12T03:01:01;8.20;;;1.97;;
5696;SDS011;2873;50.966;7.210;2023-04-12T03:03:32;3.78;;;1.60;;
5696;SDS011;2873;50.966;7.210;2023-04-12T03:06:00;3.50;;;1.95;;
5696;SDS011;2873;50.966;7.210;2023-04-12T03:08:26;4.57;;;1.80;;
5696;SDS011;2873;50.966;7.210;2023-04-12T03:10:51;7.33;;;1.80;;
5696;SDS011;2873;50.966;7.210;2023-04-12T03:13:17;2.70;;;1.70;;
5696;SDS011;2873;50.966;7.210;2023-04-12T03:15:43;6.33;;;1.90;;
5696;SDS011;2873;50.966;7.210;2023-04-12T03:18:10;3.30;;;1.73;;
5696;SDS011;2873;50.966;7.210;2023-04-12T03:20:36;5.72;;;2.08;;
5696;SDS011;2873;50.966;7.210;2023-04-12T03:23:03;5.22;;;1.75;;
5696;SDS011;2873;50.966;7.210;2023-04-12T03:25:29;3.75;;;1.70;;
5696;SDS011;2873;50.966;7.210;2023-04-12T03:27:55;4.40;;;1.70;;
5696;SDS011;2873;50.966;7.210;2023-04-12T03:30:20;6.17;;;2.00;;
5696;SDS011;2873;50.966;7.210;2023-04-12T03:32:46;5.40;;;1.73;;
5696;SDS011;2873;50.966;7.210;2023-04-12T03:35:11;4.10;;;1.70;;
5696;SDS011;2873;50.966;7.210;2023-04-12T03:37:40;5.20;;;2.27;;
5696;SDS011;2873;50.966;7.210;2023-04-12T03:40:06;7.57;;;1.90;;
5696;SDS011;2873;50.966;7.210;2023-04-12T03:42:33;7.85;;;2.22;;
5696;SDS011;2873;50.966;7.210;2023-04-12T03:44:58;7.10;;;2.10;;
5696;SDS011;2873;50.966;7.210;2023-04-12T03:47:24;5.55;;;2.50;;
5696;SDS011;2873;50.966;7.210;2023-04-12T03:49:50;4.75;;;2.00;;
5696;SDS011;2873;50.966;7.210;2023-04-12T03:52:18;4.40;;;1.95;;
5696;SDS011;2873;50.966;7.210;2023-04-12T03:54:44;4.93;;;2.20;;
5696;SDS011;2873;50.966;7.210;2023-04-12T03:57:09;5.10;;;2.00;;
5696;SDS011;2873;50.966;7.210;2023-04-12T03:59:35;5.50;;;2.30;;
5696;SDS011;2873;50.966;7.210;2023-04-12T04:02:00;5.60;;;2.77;;
5696;SDS011;2873;50.966;7.210;2023-04-12T04:04:26;7.30;;;2.17;;
5696;SDS011;2873;50.966;7.210;2023-04-12T04:06:52;3.13;;;2.40;;
5696;SDS011;2873;50.966;7.210;2023-04-12T04:09:18;5.10;;;2.78;;
5696;SDS011;2873;50.966;7.210;2023-04-12T04:11:45;2.83;;;1.80;;
5696;SDS011;2873;50.966;7.210;2023-04-12T04:14:14;3.60;;;2.20;;
5696;SDS011;2873;50.966;7.210;2023-04-12T04:16:40;3.13;;;2.10;;
5696;SDS011;2873;50.966;7.210;2023-04-12T04:19:05;4.40;;;2.10;;
5696;SDS011;2873;50.966;7.210;2023-04-12T04:21:31;9.03;;;3.10;;
5696;SDS011;2873;50.966;7.210;2023-04-12T04:23:59;5.70;;;1.93;;
5696;SDS011;2873;50.966;7.210;2023-04-12T04:26:26;1.83;;;1.63;;
5696;SDS011;2873;50.966;7.210;2023-04-12T04:28:58;5.90;;;2.60;;
5696;SDS011;2873;50.966;7.210;2023-04-12T04:31:27;3.85;;;2.20;;
5696;SDS011;2873;50.966;7.210;2023-04-12T04:34:00;3.85;;;1.90;;
5696;SDS011;2873;50.966;7.210;2023-04-12T04:36:27;4.68;;;2.10;;
5696;SDS011;2873;50.966;7.210;2023-04-12T04:38:54;2.65;;;1.90;;
5696;SDS011;2873;50.966;7.210;2023-04-12T04:41:21;3.95;;;2.22;;
5696;SDS011;2873;50.966;7.210;2023-04-12T04:43:48;4.90;;;2.10;;
5696;SDS011;2873;50.966;7.210;2023-04-12T04:46:14;4.40;;;2.20;;
5696;SDS011;2873;50.966;7.210;2023-04-12T04:48:41;4.20;;;1.90;;
5696;SDS011;2873;50.966;7.210;2023-04-12T04:51:06;4.93;;;2.08;;
5696;SDS011;2873;50.966;7.210;2023-04-12T04:53:32;3.37;;;1.87;;
5696;SDS011;2873;50.966;7.210;2023-04-12T04:55:58;3.50;;;2.10;;
5696;SDS011;2873;50.966;7.210;2023-04-12T04:58:24;5.65;;;2.00;;
5696;SDS011;2873;50.966;7.210;2023-04-12T05:00:50;4.32;;;2.10;;
5696;SDS011;2873;50.966;7.210;2023-04-12T05:03:19;2.70;;;1.80;;
5696;SDS011;2873;50.966;7.210;2023-04-12T05:05:47;4.20;;;1.60;;
5696;SDS011;2873;50.966;7.210;2023-04-12T05:08:13;3.15;;;2.00;;
5696;SDS011;2873;50.966;7.210;2023-04-12T05:10:38;2.30;;;2.20;;
5696;SDS011;2873;50.966;7.210;2023-04-12T05:13:04;3.37;;;2.00;;
5696;SDS011;2873;50.966;7.210;2023-04-12T05:15:29;4.20;;;1.90;;
5696;SDS011;2873;50.966;7.210;2023-04-12T05:17:55;2.47;;;1.85;;
5696;SDS011;2873;50.966;7.210;2023-04-12T05:20:21;1.93;;;1.80;;
5696;SDS011;2873;50.966;7.210;2023-04-12T05:22:46;2.78;;;1.90;;
5696;SDS011;2873;50.966;7.210;2023-04-12T05:25:12;2.60;;;1.80;;
5696;SDS011;2873;50.966;7.210;2023-04-12T05:27:38;2.30;;;1.70;;
5696;SDS011;2873;50.966;7.210;2023-04-12T05:30:03;3.03;;;1.60;;
5696;SDS011;2873;50.966;7.210;2023-04-12T05:32:29;3.00;;;1.75;;
5696;SDS011;2873;50.966;7.210;2023-04-12T05:34:55;3.40;;;1.60;;
5696;SDS011;2873;50.966;7.210;2023-04-12T05:37:21;2.45;;;1.70;;
5696;SDS011;2873;50.966;7.210;2023-04-12T05:39:47;5.30;;;2.13;;
5696;SDS011;2873;50.966;7.210;2023-04-12T05:42:12;2.30;;;1.90;;
5696;SDS011;2873;50.966;7.210;2023-04-12T05:44:38;4.37;;;1.87;;
5696;SDS011;2873;50.966;7.210;2023-04-12T05:47:03;4.20;;;1.83;;
5696;SDS011;2873;50.966;7.210;2023-04-12T05:49:29;3.00;;;1.67;;
5696;SDS011;2873;50.966;7.210;2023-04-12T05:51:55;1.63;;;1.40;;
5696;SDS011;2873;50.966;7.210;2023-04-12T05:54:21;6.10;;;1.90;;
5696;SDS011;2873;50.966;7.210;2023-04-12T05:56:47;5.40;;;2.00;;
5696;SDS011;2873;50.966;7.210;2023-04-12T05:59:12;4.47;;;1.90;;
5696;SDS011;2873;50.966;7.210;2023-04-12T06:01:38;3.90;;;1.63;;
5696;SDS011;2873;50.966;7.210;2023-04-12T06:04:06;3.90;;;1.90;;
5696;SDS011;2873;50.966;7.210;2023-04-12T06:06:32;3.10;;;1.60;;
5696;SDS011;2873;50.966;7.210;2023-04-12T06:08:58;2.90;;;1.90;;
5696;SDS011;2873;50.966;7.210;2023-04-12T06:11:25;3.10;;;1.70;;
5696;SDS011;2873;50.966;7.210;2023-04-12T06:13:51;3.40;;;2.10;;
5696;SDS011;2873;50.966;7.210;2023-04-12T06:16:16;2.97;;;1.83;;
5696;SDS011;2873;50.966;7.210;2023-04-12T06:18:42;5.70;;;3.93;;
5696;SDS011;2873;50.966;7.210;2023-04-12T06:21:07;4.57;;;3.05;;
5696;SDS011;2873;50.966;7.210;2023-04-12T06:23:33;3.60;;;2.00;;
5696;SDS011;2873;50.966;7.210;2023-04-12T06:25:58;3.40;;;1.90;;
5696;SDS011;2873;50.966;7.210;2023-04-12T06:28:24;2.60;;;1.93;;
5696;SDS011;2873;50.966;7.210;2023-04-12T06:30:49;5.07;;;1.90;;
5696;SDS011;2873;50.966;7.210;2023-04-12T06:33:15;3.10;;;2.30;;
5696;SDS011;2873;50.966;7.210;2023-04-12T06:35:42;1.70;;;1.60;;
5696;SDS011;2873;50.966;7.210;2023-04-12T06:38:08;1.90;;;1.53;;
5696;SDS011;2873;50.966;7.210;2023-04-12T06:40:34;3.00;;;1.60;;
5696;SDS011;2873;50.966;7.210;2023-04-12T06:42:59;3.10;;;1.70;;
5696;SDS011;2873;50.966;7.210;2023-04-12T06:45:25;5.13;;;2.10;;
5696;SDS011;2873;50.966;7.210;2023-04-12T06:47:51;1.80;;;1.50;;
5696;SDS011;2873;50.966;7.210;2023-04-12T06:50:18;4.20;;;1.60;;
5696;SDS011;2873;50.966;7.210;2023-04-12T06:52:43;2.10;;;1.50;;
5696;SDS011;2873;50.966;7.210;2023-04-12T06:55:09;1.50;;;1.40;;
5696;SDS011;2873;50.966;7.210;2023-04-12T06:57:35;2.20;;;2.00;;
5696;SDS011;2873;50.966;7.210;2023-04-12T07:00:00;2.92;;;1.90;;
5696;SDS011;2873;50.966;7.210;2023-04-12T07:02:27;2.27;;;1.50;;
5696;SDS011;2873;50.966;7.210;2023-04-12T07:04:52;2.60;;;1.60;;
5696;SDS011;2873;50.966;7.210;2023-04-12T07:07:18;1.40;;;1.30;;
5696;SDS011;2873;50.966;7.210;2023-04-12T07:09:44;2.30;;;1.40;;
5696;SDS011;2873;50.966;7.210;2023-04-12T07:12:11;2.53;;;1.10;;
5696;SDS011;2873;50.966;7.210;2023-04-12T07:14:37;3.25;;;1.30;;
5696;SDS011;2873;50.966;7.210;2023-04-12T07:17:03;1.40;;;1.00;;
5696;SDS011;2873;50.966;7.210;2023-04-12T07:19:29;4.95;;;1.40;;
5696;SDS011;2873;50.966;7.210;2023-04-12T07:21:55;2.40;;;1.47;;
5696;SDS011;2873;50.966;7.210;2023-04-12T07:24:21;2.20;;;1.50;;
5696;SDS011;2873;50.966;7.210;2023-04-12T07:26:47;1.30;;;1.20;;
5696;SDS011;2873;50.966;7.210;2023-04-12T07:29:13;1.60;;;1.50;;
5696;SDS011;2873;50.966;7.210;2023-04-12T07:31:38;1.50;;;1.40;;
5696;SDS011;2873;50.966;7.210;2023-04-12T07:34:04;1.70;;;1.30;;
5696;SDS011;2873;50.966;7.210;2023-04-12T07:36:30;2.07;;;1.57;;
5696;SDS011;2873;50.966;7.210;2023-04-12T07:38:55;1.30;;;1.20;;
5696;SDS011;2873;50.966;7.210;2023-04-12T07:41:21;2.55;;;1.20;;
5696;SDS011;2873;50.966;7.210;2023-04-12T07:43:47;1.20;;;1.20;;
5696;SDS011;2873;50.966;7.210;2023-04-12T07:46:12;1.65;;;1.20;;
5696;SDS011;2873;50.966;7.210;2023-04-12T07:48:38;2.20;;;1.20;;
5696;SDS011;2873;50.966;7.210;2023-04-12T07:51:04;1.60;;;1.20;;
5696;SDS011;2873;50.966;7.210;2023-04-12T07:53:29;1.67;;;1.20;;
5696;SDS011;2873;50.966;7.210;2023-04-12T07:55:55;1.60;;;1.20;;
5696;SDS011;2873;50.966;7.210;2023-04-12T07:58:21;1.38;;;1.30;;
5696;SDS011;2873;50.966;7.210;2023-04-12T08:00:48;2.88;;;1.40;;
5696;SDS011;2873;50.966;7.210;2023-04-12T08:03:15;2.30;;;1.20;;
5696;SDS011;2873;50.966;7.210;2023-04-12T08:05:42;1.30;;;1.20;;
5696;SDS011;2873;50.966;7.210;2023-04-12T08:08:08;1.30;;;1.20;;
5696;SDS011;2873;50.966;7.210;2023-04-12T08:10:35;1.40;;;1.30;;
5696;SDS011;2873;50.966;7.210;2023-04-12T08:13:01;1.10;;;1.10;;
5696;SDS011;2873;50.966;7.210;2023-04-12T08:15:27;3.03;;;1.27;;
5696;SDS011;2873;50.966;7.210;2023-04-12T08:17:53;1.00;;;1.00;;
5696;SDS011;2873;50.966;7.210;2023-04-12T08:20:19;2.00;;;1.00;;
5696;SDS011;2873;50.966;7.210;2023-04-12T08:22:44;2.35;;;1.13;;
5696;SDS011;2873;50.966;7.210;2023-04-12T08:25:11;1.13;;;1.02;;
5696;SDS011;2873;50.966;7.210;2023-04-12T08:27:38;1.25;;;1.15;;
5696;SDS011;2873;50.966;7.210;2023-04-12T08:30:05;1.70;;;1.20;;
5696;SDS011;2873;50.966;7.210;2023-04-12T08:32:32;1.30;;;1.20;;
5696;SDS011;2873;50.966;7.210;2023-04-12T08:34:58;1.67;;;1.00;;
5696;SDS011;2873;50.966;7.210;2023-04-12T08:37:24;2.47;;;1.30;;
5696;SDS011;2873;50.966;7.210;2023-04-12T08:39:50;1.20;;;1.10;;
5696;SDS011;2873;50.966;7.210;2023-04-12T08:42:15;1.45;;;1.35;;
5696;SDS011;2873;50.966;7.210;2023-04-12T08:44:41;1.90;;;1.40;;
5696;SDS011;2873;50.966;7.210;2023-04-12T08:47:08;1.70;;;1.20;;
5696;SDS011;2873;50.966;7.210;2023-04-12T08:49:35;1.73;;;1.30;;
5696;SDS011;2873;50.966;7.210;2023-04-12T08:52:07;2.80;;;1.30;;
5696;SDS011;2873;50.966;7.210;2023-04-12T08:54:34;1.60;;;1.50;;
5696;SDS011;2873;50.966;7.210;2023-04-12T08:57:00;1.83;;;1.25;;
5696;SDS011;2873;50.966;7.210;2023-04-12T08:59:29;1.40;;;1.40;;
5696;SDS011;2873;50.966;7.210;2023-04-12T09:01:55;1.50;;;1.40;;
5696;SDS011;2873;50.966;7.210;2023-04-12T09:04:21;1.30;;;1.20;;
5696;SDS011;2873;50.966;7.210;2023-04-12T09:06:47;1.30;;;1.30;;
5696;SDS011;2873;50.966;7.210;2023-04-12T09:09:13;1.80;;;1.20;;
5696;SDS011;2873;50.966;7.210;2023-04-12T09:11:38;1.20;;;1.10;;
5696;SDS011;2873;50.966;7.210;2023-04-12T09:14:18;1.40;;;1.10;;
5696;SDS011;2873;50.966;7.210;2023-04-12T09:16:47;1.30;;;1.15;;
5696;SDS011;2873;50.966;7.210;2023-04-12T09:19:12;1.10;;;1.00;;
5696;SDS011;2873;50.966;7.210;2023-04-12T09:21:53;2.20;;;1.20;;
5696;SDS011;2873;50.966;7.210;2023-04-12T09:24:20;1.15;;;1.15;;
5696;SDS011;2873;50.966;7.210;2023-04-12T09:26:48;1.30;;;1.20;;
5696;SDS011;2873;50.966;7.210;2023-04-12T09:29:25;2.25;;;0.90;;
5696;SDS011;2873;50.966;7.210;2023-04-12T09:31:54;1.40;;;1.30;;
5696;SDS011;2873;50.966;7.210;2023-04-12T09:34:26;0.90;;;0.90;;
5696;SDS011;2873;50.966;7.210;2023-04-12T09:36:52;1.00;;;1.00;;
5696;SDS011;2873;50.966;7.210;2023-04-12T09:39:18;1.07;;;0.97;;
5696;SDS011;2873;50.966;7.210;2023-04-12T09:41:44;0.90;;;0.90;;
5696;SDS011;2873;50.966;7.210;2023-04-12T09:44:12;0.90;;;0.90;;
5696;SDS011;2873;50.966;7.210;2023-04-12T09:46:53;1.17;;;1.00;;
5696;SDS011;2873;50.966;7.210;2023-04-12T09:49:19;4.50;;;1.40;;
5696;SDS011;2873;50.966;7.210;2023-04-12T09:52:04;1.30;;;1.20;;
5696;SDS011;2873;50.966;7.210;2023-04-12T09:54:32;1.95;;;1.10;;
5696;SDS011;2873;50.966;7.210;2023-04-12T09:57:08;1.30;;;1.30;;
5696;SDS011;2873;50.966;7.210;2023-04-12T09:59:35;3.17;;;1.48;;
5696;SDS011;2873;50.966;7.210;2023-04-12T10:02:12;1.00;;;1.00;;
5696;SDS011;2873;50.966;7.210;2023-04-12T10:04:40;1.20;;;1.10;;
5696;SDS011;2873;50.966;7.210;2023-04-12T10:07:06;1.30;;;1.30;;
5696;SDS011;2873;50.966;7.210;2023-04-12T10:09:41;2.30;;;1.50;;
5696;SDS011;2873;50.966;7.210;2023-04-12T10:12:07;3.67;;;1.70;;
5696;SDS011;2873;50.966;7.210;2023-04-12T10:14:33;1.60;;;1.50;;
5696;SDS011;2873;50.966;7.210;2023-04-12T10:17:00;1.60;;;1.50;;
5696;SDS011;2873;50.966;7.210;2023-04-12T10:19:27;2.60;;;1.80;;
5696;SDS011;2873;50.966;7.210;2023-04-12T10:21:54;1.55;;;1.40;;
5696;SDS011;2873;50.966;7.210;2023-04-12T10:24:23;1.70;;;1.60;;
5696;SDS011;2873;50.966;7.210;2023-04-12T10:26:51;1.52;;;1.50;;
5696;SDS011;2873;50.966;7.210;2023-04-12T10:29:24;1.60;;;1.50;;
5696;SDS011;2873;50.966;7.210;2023-04-12T10:31:51;3.35;;;1.75;;
5696;SDS011;2873;50.966;7.210;2023-04-12T10:34:25;1.67;;;1.58;;
5696;SDS011;2873;50.966;7.210;2023-04-12T10:36:56;3.40;;;1.50;;
5696;SDS011;2873;50.966;7.210;2023-04-12T10:39:42;1.60;;;1.50;;
5696;SDS011;2873;50.966;7.210;2023-04-12T10:42:18;1.30;;;1.20;;
5696;SDS011;2873;50.966;7.210;2023-04-12T10:44:47;2.60;;;1.50;;
5696;SDS011;2873;50.966;7.210;2023-04-12T10:47:14;2.72;;;1.40;;
5696;SDS011;2873;50.966;7.210;2023-04-12T10:49:40;1.60;;;1.40;;
5696;SDS011;2873;50.966;7.210;2023-04-12T10:52:26;2.40;;;1.13;;
5696;SDS011;2873;50.966;7.210;2023-04-12T10:54:52;1.30;;;1.20;;
5696;SDS011;2873;50.966;7.210;2023-04-12T11:00:06;1.40;;;1.10;;
5696;SDS011;2873;50.966;7.210;2023-04-12T11:02:32;1.40;;;1.40;;
5696;SDS011;2873;50.966;7.210;2023-04-12T11:07:43;0.82;;;0.82;;
5696;SDS011;2873;50.966;7.210;2023-04-12T11:10:15;0.95;;;0.95;;
5696;SDS011;2873;50.966;7.210;2023-04-12T11:12:47;1.10;;;1.02;;
5696;SDS011;2873;50.966;7.210;2023-04-12T11:15:14;1.20;;;1.20;;
5696;SDS011;2873;50.966;7.210;2023-04-12T11:17:40;0.80;;;0.80;;
5696;SDS011;2873;50.966;7.210;2023-04-12T11:20:09;0.90;;;0.90;;
5696;SDS011;2873;50.966;7.210;2023-04-12T11:22:36;3.60;;;1.10;;
5696;SDS011;2873;50.966;7.210;2023-04-12T11:25:02;1.20;;;1.10;;
5696;SDS011;2873;50.966;7.210;2023-04-12T11:27:28;2.20;;;1.00;;
5696;SDS011;2873;50.966;7.210;2023-04-12T11:29:56;1.55;;;1.42;;
5696;SDS011;2873;50.966;7.210;2023-04-12T11:32:23;1.42;;;1.08;;
5696;SDS011;2873;50.966;7.210;2023-04-12T11:34:52;2.20;;;1.30;;
5696;SDS011;2873;50.966;7.210;2023-04-12T11:37:18;1.40;;;1.40;;
5696;SDS011;2873;50.966;7.210;2023-04-12T11:39:46;1.65;;;1.50;;
5696;SDS011;2873;50.966;7.210;2023-04-12T11:42:13;2.00;;;1.80;;
5696;SDS011;2873;50.966;7.210;2023-04-12T11:44:44;2.20;;;2.10;;
5696;SDS011;2873;50.966;7.210;2023-04-12T11:47:17;2.45;;;2.30;;
5696;SDS011;2873;50.966;7.210;2023-04-12T11:49:45;3.10;;;2.20;;
5696;SDS011;2873;50.966;7.210;2023-04-12T11:52:13;2.17;;;2.07;;
5696;SDS011;2873;50.966;7.210;2023-04-12T11:54:43;2.40;;;2.30;;
5696;SDS011;2873;50.966;7.210;2023-04-12T11:57:11;3.05;;;2.85;;
5696;SDS011;2873;50.966;7.210;2023-04-12T11:59:44;3.95;;;3.00;;
5696;SDS011;2873;50.966;7.210;2023-04-12T12:02:12;4.50;;;3.20;;
5696;SDS011;2873;50.966;7.210;2023-04-12T12:04:39;3.60;;;3.13;;
5696;SDS011;2873;50.966;7.210;2023-04-12T12:07:06;4.10;;;3.80;;
5696;SDS011;2873;50.966;7.210;2023-04-12T12:09:32;4.10;;;3.70;;
5696;SDS011;2873;50.966;7.210;2023-04-12T12:15:22;6.10;;;4.10;;
5696;SDS011;2873;50.966;7.210;2023-04-12T12:17:49;4.60;;;3.90;;
5696;SDS011;2873;50.966;7.210;2023-04-12T12:20:19;3.65;;;3.30;;
5696;SDS011;2873;50.966;7.210;2023-04-12T12:22:48;5.03;;;3.60;;
5696;SDS011;2873;50.966;7.210;2023-04-12T12:25:16;3.50;;;3.17;;
5696;SDS011;2873;50.966;7.210;2023-04-12T12:27:41;4.28;;;3.30;;
5696;SDS011;2873;50.966;7.210;2023-04-12T12:30:12;5.20;;;3.10;;
5696;SDS011;2873;50.966;7.210;2023-04-12T12:32:41;7.45;;;3.00;;
5696;SDS011;2873;50.966;7.210;2023-04-12T12:35:07;3.95;;;2.70;;
5696;SDS011;2873;50.966;7.210;2023-04-12T12:44:18;4.72;;;2.80;;
5696;SDS011;2873;50.966;7.210;2023-04-12T12:46:43;4.70;;;3.00;;
5696;SDS011;2873;50.966;7.210;2023-04-12T12:49:09;3.90;;;3.07;;
5696;SDS011;2873;50.966;7.210;2023-04-12T12:51:35;3.60;;;2.78;;
5696;SDS011;2873;50.966;7.210;2023-04-12T12:54:00;5.57;;;3.37;;
5696;SDS011;2873;50.966;7.210;2023-04-12T12:56:26;3.57;;;2.90;;
5696;SDS011;2873;50.966;7.210;2023-04-12T12:58:51;4.20;;;3.53;;
5696;SDS011;2873;50.966;7.210;2023-04-12T13:01:17;5.07;;;2.70;;
5696;SDS011;2873;50.966;7.210;2023-04-12T13:03:42;2.78;;;2.35;;
5696;SDS011;2873;50.966;7.210;2023-04-12T13:06:08;4.10;;;2.80;;
5696;SDS011;2873;50.966;7.210;2023-04-12T13:08:34;3.70;;;1.90;;
5696;SDS011;2873;50.966;7.210;2023-04-12T13:11:01;2.83;;;1.92;;
5696;SDS011;2873;50.966;7.210;2023-04-12T13:13:26;2.92;;;1.80;;
5696;SDS011;2873;50.966;7.210;2023-04-12T13:15:52;6.23;;;1.70;;
5696;SDS011;2873;50.966;7.210;2023-04-12T13:18:18;2.10;;;1.60;;
5696;SDS011;2873;50.966;7.210;2023-04-12T13:20:44;2.47;;;1.27;;
5696;SDS011;2873;50.966;7.210;2023-04-12T13:23:09;4.05;;;1.85;;
5696;SDS011;2873;50.966;7.210;2023-04-12T13:25:35;1.70;;;1.30;;
5696;SDS011;2873;50.966;7.210;2023-04-12T13:28:01;1.42;;;1.33;;
5696;SDS011;2873;50.966;7.210;2023-04-12T13:30:26;4.75;;;1.15;;
5696;SDS011;2873;50.966;7.210;2023-04-12T13:32:52;1.77;;;1.20;;
5696;SDS011;2873;50.966;7.210;2023-04-12T13:35:19;3.92;;;1.80;;
5696;SDS011;2873;50.966;7.210;2023-04-12T13:37:44;5.97;;;1.10;;
5696;SDS011;2873;50.966;7.210;2023-04-12T13:40:10;4.60;;;1.30;;
5696;SDS011;2873;50.966;7.210;2023-04-12T13:42:36;3.90;;;1.20;;
5696;SDS011;2873;50.966;7.210;2023-04-12T13:45:01;1.80;;;1.00;;
5696;SDS011;2873;50.966;7.210;2023-04-12T13:47:28;3.20;;;1.20;;
5696;SDS011;2873;50.966;7.210;2023-04-12T13:49:54;2.77;;;1.07;;
5696;SDS011;2873;50.966;7.210;2023-04-12T13:52:19;6.30;;;1.90;;
5696;SDS011;2873;50.966;7.210;2023-04-12T13:54:45;5.10;;;1.58;;
5696;SDS011;2873;50.966;7.210;2023-04-12T13:57:10;2.43;;;1.20;;
5696;SDS011;2873;50.966;7.210;2023-04-12T13:59:36;4.47;;;1.50;;
5696;SDS011;2873;50.966;7.210;2023-04-12T14:02:02;9.63;;;2.13;;
5696;SDS011;2873;50.966;7.210;2023-04-12T14:04:27;2.50;;;1.17;;
5696;SDS011;2873;50.966;7.210;2023-04-12T14:06:54;3.45;;;1.40;;
5696;SDS011;2873;50.966;7.210;2023-04-12T14:09:21;2.40;;;1.70;;
5696;SDS011;2873;50.966;7.210;2023-04-12T14:11:49;5.47;;;1.60;;
5696;SDS011;2873;50.966;7.210;2023-04-12T14:14:15;3.95;;;1.17;;
5696;SDS011;2873;50.966;7.210;2023-04-12T14:16:40;5.30;;;1.17;;
5696;SDS011;2873;50.966;7.210;2023-04-12T14:19:06;8.25;;;1.30;;
5696;SDS011;2873;50.966;7.210;2023-04-12T14:21:31;5.75;;;1.70;;
5696;SDS011;2873;50.966;7.210;2023-04-12T14:23:57;4.80;;;1.30;;
5696;SDS011;2873;50.966;7.210;2023-04-12T14:26:22;3.47;;;1.33;;
5696;SDS011;2873;50.966;7.210;2023-04-12T14:28:49;3.57;;;1.70;;
5696;SDS011;2873;50.966;7.210;2023-04-12T14:31:15;4.65;;;1.42;;
5696;SDS011;2873;50.966;7.210;2023-04-12T14:33:41;3.63;;;1.40;;
5696;SDS011;2873;50.966;7.210;2023-04-12T14:36:06;4.80;;;1.40;;
5696;SDS011;2873;50.966;7.210;2023-04-12T14:38:32;5.60;;;1.70;;
5696;SDS011;2873;50.966;7.210;2023-04-12T14:40:58;5.93;;;1.73;;
5696;SDS011;2873;50.966;7.210;2023-04-12T14:43:25;6.50;;;1.30;;
5696;SDS011;2873;50.966;7.210;2023-04-12T14:45:51;6.00;;;1.60;;
5696;SDS011;2873;50.966;7.210;2023-04-12T14:48:17;4.78;;;1.50;;
5696;SDS011;2873;50.966;7.210;2023-04-12T14:50:44;3.85;;;1.60;;
5696;SDS011;2873;50.966;7.210;2023-04-12T14:53:09;10.10;;;1.80;;
5696;SDS011;2873;50.966;7.210;2023-04-12T14:55:37;7.18;;;1.85;;
5696;SDS011;2873;50.966;7.210;2023-04-12T14:58:03;6.73;;;1.40;;
5696;SDS011;2873;50.966;7.210;2023-04-12T15:00:28;9.10;;;1.70;;
5696;SDS011;2873;50.966;7.210;2023-04-12T15:02:54;6.10;;;1.90;;
5696;SDS011;2873;50.966;7.210;2023-04-12T15:05:20;6.77;;;2.00;;
5696;SDS011;2873;50.966;7.210;2023-04-12T15:07:46;9.73;;;2.08;;
5696;SDS011;2873;50.966;7.210;2023-04-12T15:10:11;7.30;;;2.03;;
5696;SDS011;2873;50.966;7.210;2023-04-12T15:12:39;7.70;;;2.33;;
5696;SDS011;2873;50.966;7.210;2023-04-12T15:15:05;3.10;;;1.83;;
5696;SDS011;2873;50.966;7.210;2023-04-12T15:17:31;2.83;;;1.77;;
5696;SDS011;2873;50.966;7.210;2023-04-12T15:19:58;5.53;;;1.90;;
5696;SDS011;2873;50.966;7.210;2023-04-12T15:22:24;5.53;;;1.88;;
5696;SDS011;2873;50.966;7.210;2023-04-12T15:24:51;6.43;;;2.00;;
5696;SDS011;2873;50.966;7.210;2023-04-12T15:27:17;6.65;;;1.80;;
5696;SDS011;2873;50.966;7.210;2023-04-12T15:29:42;3.72;;;1.80;;
5696;SDS011;2873;50.966;7.210;2023-04-12T15:32:08;3.77;;;1.70;;
5696;SDS011;2873;50.966;7.210;2023-04-12T15:34:33;6.45;;;2.35;;
5696;SDS011;2873;50.966;7.210;2023-04-12T15:36:59;4.40;;;1.60;;
5696;SDS011;2873;50.966;7.210;2023-04-12T15:39:25;8.55;;;2.15;;